Time;durP1;ratioP1;P1;durP2;ratioP2;P2;SDS_P1;SDS_P2;PMS_P1;PMS_P2;Temp;Humidity;BMP_temperature;BMP_pressure;BME280_temperature;BME280_humidity;BME280_pressure;Samples;Min_cycle;Max_cycle;Signal;HPM_P1;HPM_P2
2022/08/05 00:00:22;;;;;;;2.88;1.20;;;25.40;99.90;;;;;;1041061;28;20032;-68
2022/08/05 00:00:53;;;;;;;3.87;1.80;;;25.50;99.90;;;;;;1042163;28;20108;-67
2022/08/05 00:01:23;;;;;;;1.57;0.93;;;25.50;99.90;;;;;;1042698;28;20013;-67
2022/08/05 00:01:54;;;;;;;5.23;1.30;;;25.40;99.90;;;;;;1042341;28;20445;-67
2022/08/05 00:02:24;;;;;;;3.60;1.53;;;25.40;99.90;;;;;;1042544;28;20032;-67
2022/08/05 00:02:55;;;;;;;3.67;1.33;;;25.40;99.90;;;;;;1042319;28;20017;-67
2022/08/05 00:03:26;;;;;;;4.37;1.60;;;25.40;99.90;;;;;;1043115;28;20021;-67
2022/08/05 00:03:56;;;;;;;1.70;1.17;;;25.40;99.90;;;;;;1042486;28;20028;-67
2022/08/05 00:04:27;;;;;;;5.10;2.13;;;25.40;99.90;;;;;;1043045;28;20480;-67
2022/08/05 00:04:57;;;;;;;3.37;1.40;;;25.40;99.90;;;;;;1042798;28;20551;-67
2022/08/05 00:05:28;;;;;;;1.40;1.07;;;25.40;99.90;;;;;;1042869;28;20423;-67
2022/08/05 00:05:58;;;;;;;3.23;1.60;;;25.40;99.90;;;;;;1042581;28;20682;-67
2022/08/05 00:06:29;;;;;;;1.93;1.23;;;25.40;99.90;;;;;;1042494;28;20111;-67
2022/08/05 00:06:59;;;;;;;2.47;1.40;;;25.40;99.90;;;;;;1042298;28;20027;-67
2022/08/05 00:07:30;;;;;;;4.33;1.50;;;25.40;99.90;;;;;;1042428;28;20021;-68
2022/08/05 00:08:00;;;;;;;3.47;1.40;;;25.40;99.90;;;;;;1038237;28;20725;-67
2022/08/05 00:08:31;;;;;;;5.20;1.93;;;25.40;99.90;;;;;;1038501;28;20103;-69
2022/08/05 00:09:03;;;;;;;2.80;1.33;;;25.40;99.90;;;;;;1042260;28;20063;-66
2022/08/05 00:09:33;;;;;;;4.05;1.45;;;25.40;99.90;;;;;;1042220;28;20017;-67
2022/08/05 00:10:04;;;;;;;3.77;1.60;;;25.40;99.90;;;;;;1040852;28;20024;-67
2022/08/05 00:10:35;;;;;;;2.25;1.30;;;25.40;99.90;;;;;;1042501;28;20021;-67
2022/08/05 00:11:10;;;;;;;3.93;1.83;;;25.40;99.90;;;;;;1042766;28;20047;-68
2022/08/05 00:11:40;;;;;;;3.75;1.77;;;25.40;99.90;;;;;;1042759;28;20074;-67
2022/08/05 00:12:11;;;;;;;2.70;1.40;;;25.40;99.90;;;;;;1042601;28;20025;-67
2022/08/05 00:12:41;;;;;;;3.53;1.77;;;25.40;99.90;;;;;;1042582;28;20028;-67
2022/08/05 00:13:12;;;;;;;2.67;1.60;;;25.40;99.90;;;;;;1042944;28;20496;-67
2022/08/05 00:13:44;;;;;;;3.07;1.80;;;25.40;99.90;;;;;;1042472;28;20024;-68
2022/08/05 00:14:14;;;;;;;3.58;1.85;;;25.30;99.90;;;;;;1042759;28;20036;-67
2022/08/05 00:14:45;;;;;;;4.37;1.37;;;25.40;99.90;;;;;;1042703;28;20021;-67
2022/08/05 00:15:16;;;;;;;4.63;1.83;;;25.40;99.90;;;;;;1042908;28;20750;-67
2022/08/05 00:15:46;;;;;;;2.07;1.57;;;25.40;99.90;;;;;;1042248;28;20066;-67
2022/08/05 00:16:17;;;;;;;4.37;1.60;;;25.40;99.90;;;;;;1042520;28;20025;-67
2022/08/05 00:16:47;;;;;;;2.83;1.53;;;25.30;99.90;;;;;;1042398;28;20029;-68
2022/08/05 00:17:18;;;;;;;2.50;1.80;;;25.30;99.90;;;;;;1042865;28;20021;-68
2022/08/05 00:17:48;;;;;;;3.63;1.50;;;25.30;99.90;;;;;;1042749;28;20024;-68
2022/08/05 00:18:19;;;;;;;3.53;1.43;;;25.30;99.90;;;;;;1043167;28;20025;-67
2022/08/05 00:18:49;;;;;;;3.43;1.53;;;25.30;99.90;;;;;;1038965;28;20025;-68
2022/08/05 00:19:21;;;;;;;2.30;1.37;;;25.30;99.90;;;;;;1038599;28;20017;-67
2022/08/05 00:19:51;;;;;;;3.50;1.70;;;25.30;99.90;;;;;;1038293;28;20116;-68
2022/08/05 00:20:22;;;;;;;3.13;1.63;;;25.30;99.90;;;;;;1041204;28;20021;-67
2022/08/05 00:20:54;;;;;;;3.50;1.80;;;25.30;99.90;;;;;;1042553;28;20108;-68
2022/08/05 00:21:25;;;;;;;3.55;1.60;;;25.30;99.90;;;;;;1042720;28;20031;-68
2022/08/05 00:21:56;;;;;;;3.27;1.43;;;25.30;99.90;;;;;;1042492;28;20013;-67
2022/08/05 00:22:26;;;;;;;2.33;1.40;;;25.30;99.90;;;;;;1042985;28;20376;-68
2022/08/05 00:22:57;;;;;;;2.10;1.33;;;25.30;99.90;;;;;;1042505;28;20025;-68
2022/08/05 00:23:27;;;;;;;2.83;1.50;;;25.30;99.90;;;;;;1043031;28;20025;-68
2022/08/05 00:23:59;;;;;;;2.13;1.30;;;25.30;99.90;;;;;;1038342;28;20018;-68
2022/08/05 00:24:29;;;;;;;1.80;1.15;;;25.30;99.90;;;;;;1042486;28;20032;-68
2022/08/05 00:25:00;;;;;;;3.70;1.50;;;25.30;99.90;;;;;;1042548;28;20028;-68
2022/08/05 00:25:30;;;;;;;3.20;1.70;;;25.30;99.90;;;;;;1042831;28;20053;-68
2022/08/05 00:26:01;;;;;;;2.43;1.23;;;25.20;99.90;;;;;;1042561;28;20675;-68
2022/08/05 00:26:31;;;;;;;3.37;1.70;;;25.30;99.90;;;;;;1042921;28;20507;-68
2022/08/05 00:27:02;;;;;;;3.37;1.50;;;25.30;99.90;;;;;;1041216;28;20017;-68
2022/08/05 00:27:33;;;;;;;5.27;2.10;;;25.30;99.90;;;;;;1038694;28;20021;-68
2022/08/05 00:28:03;;;;;;;4.03;1.50;;;25.30;99.90;;;;;;1038534;28;20025;-68
2022/08/05 00:28:35;;;;;;;2.93;1.70;;;25.20;99.90;;;;;;1038639;28;20053;-68
2022/08/05 00:29:05;;;;;;;3.75;1.75;;;25.20;99.90;;;;;;1042514;28;20388;-68
2022/08/05 00:29:36;;;;;;;2.30;1.53;;;25.20;99.90;;;;;;1042761;28;20520;-68
2022/08/05 00:30:07;;;;;;;3.70;1.50;;;25.20;99.90;;;;;;1042639;28;20154;-70
2022/08/05 00:30:38;;;;;;;3.60;1.40;;;25.20;99.90;;;;;;1042611;28;20017;-68
2022/08/05 00:31:08;;;;;;;3.20;1.33;;;25.20;99.90;;;;;;1042853;28;20021;-68
2022/08/05 00:31:39;;;;;;;2.97;1.97;;;25.20;99.90;;;;;;1042622;28;20017;-68
2022/08/05 00:32:11;;;;;;;2.80;1.30;;;25.20;99.90;;;;;;1042594;28;20393;-68
2022/08/05 00:32:42;;;;;;;4.03;1.63;;;25.20;99.90;;;;;;1042693;28;20108;-68
2022/08/05 00:33:15;;;;;;;4.50;1.60;;;25.20;99.90;;;;;;1042478;28;20028;-68
2022/08/05 00:33:45;;;;;;;1.75;1.05;;;25.20;99.90;;;;;;1042147;28;20147;-67
2022/08/05 00:34:16;;;;;;;1.90;1.30;;;25.20;99.90;;;;;;1042431;28;20021;-68
2022/08/05 00:34:46;;;;;;;2.53;1.30;;;25.20;99.90;;;;;;1042401;28;20454;-68
2022/08/05 00:35:17;;;;;;;2.40;1.50;;;25.20;99.90;;;;;;1042590;28;20017;-68
2022/08/05 00:35:48;;;;;;;3.67;1.40;;;25.20;99.90;;;;;;1039795;28;20055;-68
2022/08/05 00:36:18;;;;;;;2.97;1.40;;;25.20;99.90;;;;;;1038437;28;20112;-68
2022/08/05 00:36:49;;;;;;;3.67;1.43;;;25.20;99.90;;;;;;1038307;28;20092;-68
2022/08/05 00:37:19;;;;;;;2.80;1.40;;;25.20;99.90;;;;;;1040793;28;20087;-68
2022/08/05 00:37:50;;;;;;;3.23;1.63;;;25.20;99.90;;;;;;1042814;28;20447;-68
2022/08/05 00:38:20;;;;;;;2.80;1.50;;;25.20;99.90;;;;;;1043184;28;20013;-68
2022/08/05 00:38:51;;;;;;;3.63;1.53;;;25.20;99.90;;;;;;1042283;28;20474;-68
2022/08/05 00:39:21;;;;;;;4.10;1.40;;;25.20;99.90;;;;;;1041431;28;20100;-68
2022/08/05 00:39:52;;;;;;;2.50;1.40;;;25.20;99.90;;;;;;1038359;28;20108;-68
2022/08/05 00:40:24;;;;;;;2.60;1.47;;;25.20;99.90;;;;;;1038712;28;20059;-68
2022/08/05 00:40:57;;;;;;;2.00;1.33;;;25.20;99.90;;;;;;1042104;28;20028;-68
2022/08/05 00:41:32;;;;;;;3.42;1.30;;;25.20;99.90;;;;;;1043182;28;20044;-68
2022/08/05 00:42:03;;;;;;;2.83;1.38;;;25.20;99.90;;;;;;1042736;28;20028;-68
2022/08/05 00:42:35;;;;;;;1.67;1.27;;;25.20;99.90;;;;;;1043013;28;20494;-68
2022/08/05 00:43:06;;;;;;;2.80;1.55;;;25.20;99.90;;;;;;1042956;28;20079;-68
2022/08/05 00:43:36;;;;;;;3.87;1.70;;;25.20;99.90;;;;;;1042830;28;20075;-68
2022/08/05 00:44:07;;;;;;;4.83;1.80;;;25.20;99.90;;;;;;1040892;28;20078;-68
2022/08/05 00:44:37;;;;;;;3.50;1.60;;;25.20;99.90;;;;;;1038641;28;20788;-68
2022/08/05 00:45:09;;;;;;;3.43;1.43;;;25.50;99.90;;;;;;1038811;28;20549;-68
2022/08/05 00:45:39;;;;;;;4.43;1.75;;;25.20;99.90;;;;;;1038861;28;20025;-67
2022/08/05 00:46:10;;;;;;;2.37;1.43;;;25.20;99.90;;;;;;1038801;28;20026;-68
2022/08/05 00:46:40;;;;;;;3.50;1.60;;;25.20;99.90;;;;;;1038945;28;20026;-67
2022/08/05 00:47:11;;;;;;;3.00;1.70;;;25.20;99.90;;;;;;1038445;28;20515;-67
2022/08/05 00:47:41;;;;;;;3.13;1.60;;;25.20;99.90;;;;;;1041359;28;20419;-68
2022/08/05 00:48:18;;;;;;;4.00;1.80;;;25.20;99.90;;;;;;1042585;28;20029;-68
2022/08/05 00:48:49;;;;;;;3.50;1.52;;;25.20;99.90;;;;;;1042695;28;20044;-67
2022/08/05 00:49:20;;;;;;;3.83;1.77;;;25.20;99.90;;;;;;1042823;28;20020;-67
2022/08/05 00:49:50;;;;;;;5.13;1.70;;;25.20;99.90;;;;;;1042491;28;20040;-67
2022/08/05 00:50:21;;;;;;;3.63;1.57;;;25.20;99.90;;;;;;1042523;28;20537;-67
2022/08/05 00:50:52;;;;;;;2.20;1.30;;;25.20;99.90;;;;;;1042567;28;20029;-67
2022/08/05 00:51:23;;;;;;;3.72;1.77;;;25.20;99.90;;;;;;1042599;28;20037;-67
2022/08/05 00:51:53;;;;;;;4.67;1.50;;;25.20;99.90;;;;;;1042609;28;20073;-67
2022/08/05 00:52:24;;;;;;;3.70;1.70;;;25.20;99.90;;;;;;1042954;28;20024;-67
2022/08/05 00:52:54;;;;;;;3.93;1.37;;;25.20;99.90;;;;;;1042864;28;20428;-67
2022/08/05 00:53:25;;;;;;;4.27;1.67;;;25.10;99.90;;;;;;1042607;28;20511;-67
2022/08/05 00:53:55;;;;;;;1.80;1.30;;;25.20;99.90;;;;;;1042875;28;20504;-67
2022/08/05 00:54:26;;;;;;;4.77;1.90;;;25.10;99.90;;;;;;1042939;28;20017;-67
2022/08/05 00:54:57;;;;;;;1.70;1.20;;;25.10;99.90;;;;;;1039721;28;20096;-67
2022/08/05 00:55:27;;;;;;;2.33;1.50;;;25.10;99.90;;;;;;1038824;28;20017;-67
2022/08/05 00:55:58;;;;;;;4.17;1.80;;;25.10;99.90;;;;;;1039534;28;20575;-68
2022/08/05 00:56:28;;;;;;;5.17;1.70;;;25.10;99.90;;;;;;1043033;28;20021;-68
2022/08/05 00:56:59;;;;;;;2.93;1.47;;;25.10;99.90;;;;;;1038710;28;20018;-67
2022/08/05 00:57:30;;;;;;;4.40;1.60;;;25.20;99.90;;;;;;1038998;28;20043;-67
2022/08/05 00:58:00;;;;;;;2.63;1.60;;;25.10;99.90;;;;;;1042239;28;20014;-68
2022/08/05 00:58:31;;;;;;;3.23;1.37;;;25.10;99.90;;;;;;1042565;28;20095;-67
2022/08/05 00:59:02;;;;;;;2.20;1.10;;;25.10;99.90;;;;;;1042371;28;20096;-66
2022/08/05 00:59:32;;;;;;;3.93;1.60;;;25.10;99.90;;;;;;1042450;28;20017;-67
2022/08/05 01:00:05;;;;;;;4.23;1.77;;;25.10;99.90;;;;;;1042468;28;20465;-67
2022/08/05 01:00:36;;;;;;;2.45;1.50;;;25.10;99.90;;;;;;1038829;28;20045;-67
2022/08/05 01:01:08;;;;;;;3.63;2.00;;;25.00;99.90;;;;;;1039923;28;20025;-67
2022/08/05 01:01:39;;;;;;;3.10;1.50;;;25.10;99.90;;;;;;1042842;28;20033;-67
2022/08/05 01:02:09;;;;;;;2.45;1.35;;;25.00;99.90;;;;;;1042757;28;20021;-69
2022/08/05 01:02:40;;;;;;;4.60;1.60;;;25.00;99.90;;;;;;1042350;28;20025;-67
2022/08/05 01:03:11;;;;;;;3.20;1.40;;;25.00;99.90;;;;;;1042615;28;20141;-67
2022/08/05 01:03:42;;;;;;;3.55;1.65;;;25.00;99.90;;;;;;1042495;28;20048;-67
2022/08/05 01:04:12;;;;;;;5.67;1.87;;;25.00;99.90;;;;;;1042692;28;20035;-67
2022/08/05 01:04:43;;;;;;;4.17;1.70;;;24.70;99.90;;;;;;1042752;28;20017;-67
2022/08/05 01:05:13;;;;;;;3.53;1.57;;;25.00;99.90;;;;;;1042957;28;20017;-68
2022/08/05 01:05:44;;;;;;;2.67;1.60;;;25.00;99.90;;;;;;1042948;28;20021;-69
2022/08/05 01:06:14;;;;;;;4.83;1.63;;;25.00;99.90;;;;;;1042765;28;20819;-68
2022/08/05 01:06:46;;;;;;;2.73;1.30;;;25.00;99.90;;;;;;1042887;28;20580;-67
2022/08/05 01:07:17;;;;;;;3.42;1.52;;;24.80;99.90;;;;;;1042928;28;20048;-68
2022/08/05 01:07:47;;;;;;;2.87;1.70;;;25.00;99.90;;;;;;1042825;28;20112;-67
2022/08/05 01:08:18;;;;;;;3.60;1.40;;;25.00;99.90;;;;;;1042886;28;20052;-67
2022/08/05 01:08:49;;;;;;;3.28;1.58;;;25.00;99.90;;;;;;1043035;28;20014;-67
2022/08/05 01:09:19;;;;;;;5.57;2.07;;;25.00;99.90;;;;;;1042780;28;20025;-67
2022/08/05 01:09:50;;;;;;;2.63;1.77;;;24.90;99.90;;;;;;1042856;28;20025;-67
2022/08/05 01:10:26;;;;;;;4.10;1.93;;;24.90;99.90;;;;;;1042841;28;20029;-67
2022/08/05 01:11:17;;;;;;;3.25;1.42;;;24.90;99.90;;;;;;1042838;28;20482;-67
2022/08/05 01:11:50;;;;;;;3.53;1.63;;;24.90;99.90;;;;;;1043089;28;20416;-68
2022/08/05 01:12:22;;;;;;;3.03;1.50;;;24.90;99.90;;;;;;1042761;28;20022;-67
2022/08/05 01:13:00;;;;;;;3.35;1.48;;;24.90;99.90;;;;;;1042387;28;20029;-68
2022/08/05 01:13:52;;;;;;;2.72;1.30;;;24.90;99.90;;;;;;1042507;28;20017;-68
2022/08/05 01:14:43;;;;;;;3.47;1.73;;;24.90;99.90;;;;;;1042541;28;20611;-68
2022/08/05 01:15:19;;;;;;;3.20;1.73;;;25.00;99.90;;;;;;1038499;28;20032;-68
2022/08/05 01:15:57;;;;;;;3.83;1.50;;;24.90;99.90;;;;;;1038459;28;20048;-68
2022/08/05 01:16:45;;;;;;;2.63;1.50;;;25.00;99.90;;;;;;1039955;28;20067;-69
2022/08/05 01:17:21;;;;;;;4.07;1.50;;;25.00;99.90;;;;;;1043000;28;20051;-67
2022/08/05 01:17:57;;;;;;;3.20;1.67;;;25.00;99.90;;;;;;1042772;28;20029;-67
2022/08/05 01:18:33;;;;;;;2.92;1.50;;;25.00;99.90;;;;;;1042837;28;20462;-67
2022/08/05 01:19:18;;;;;;;4.35;1.60;;;25.00;99.90;;;;;;1042901;28;20575;-68
2022/08/05 01:19:53;;;;;;;2.00;1.25;;;24.80;99.90;;;;;;1042486;28;20401;-67
2022/08/05 01:21:24;;;;;;;5.28;1.52;;;25.00;99.90;;;;;;1042922;28;20017;-67
2022/08/05 01:22:22;;;;;;;2.15;1.23;;;25.00;99.90;;;;;;1037710;28;20690;-68
2022/08/05 01:23:20;;;;;;;4.00;1.65;;;25.00;99.90;;;;;;1033780;28;20021;-68
2022/08/05 01:24:09;;;;;;;3.67;1.55;;;25.00;99.90;;;;;;1033976;28;20022;-68
2022/08/05 01:24:51;;;;;;;3.22;1.30;;;25.00;99.90;;;;;;1036078;28;20033;-67
2022/08/05 01:25:45;;;;;;;5.80;1.67;;;25.00;99.90;;;;;;1037075;28;20022;-67
2022/08/05 01:26:43;;;;;;;3.00;1.38;;;25.00;99.90;;;;;;1030037;28;20054;-67
2022/08/05 01:27:47;;;;;;;3.58;1.42;;;25.00;99.90;;;;;;1029903;28;20023;-68
2022/08/05 01:28:23;;;;;;;2.78;1.35;;;24.90;99.90;;;;;;1038148;28;20036;-69
2022/08/05 01:29:01;;;;;;;4.20;1.70;;;24.00;99.90;;;;;;1042555;28;20021;-67
2022/08/05 01:29:36;;;;;;;;;;;25.00;99.90;;;;;;1043192;28;20017;-68
2022/08/05 01:30:08;;;;;;;4.60;1.92;;;24.90;99.90;;;;;;1040946;28;19917;-67
2022/08/05 01:30:51;;;;;;;3.25;1.50;;;24.90;99.90;;;;;;1042861;28;20029;-67
2022/08/05 01:31:36;;;;;;;2.92;1.52;;;24.90;99.90;;;;;;1042883;28;20017;-68
2022/08/05 01:32:10;;;;;;;3.10;1.55;;;24.90;99.90;;;;;;1039714;28;20113;-67
2022/08/05 01:32:44;;;;;;;3.17;1.55;;;24.90;99.90;;;;;;1038768;28;20021;-67
2022/08/05 01:33:17;;;;;;;2.78;1.35;;;24.90;99.90;;;;;;1038689;28;20021;-67
2022/08/05 01:34:12;;;;;;;2.55;1.50;;;24.90;99.90;;;;;;1041910;28;20062;-67
2022/08/05 01:35:03;;;;;;;2.97;1.45;;;24.90;99.90;;;;;;1039960;28;20040;-68
2022/08/05 01:35:38;;;;;;;3.50;1.65;;;24.90;99.90;;;;;;1042744;28;20020;-67
2022/08/05 01:36:14;;;;;;;3.97;1.52;;;24.90;99.90;;;;;;1042513;28;20078;-69
2022/08/05 01:37:09;;;;;;;4.45;1.80;;;24.90;99.90;;;;;;1042341;28;20020;-67
2022/08/05 01:37:43;;;;;;;3.97;1.60;;;24.90;99.90;;;;;;1042421;28;20044;-67
2022/08/05 01:38:16;;;;;;;3.33;1.30;;;24.90;99.90;;;;;;1043062;28;20674;-68
2022/08/05 01:38:48;;;;;;;1.55;1.33;;;24.90;99.90;;;;;;1042697;28;20021;-68
2022/08/05 01:39:20;;;;;;;2.95;1.60;;;24.90;99.90;;;;;;1042847;28;20526;-67
2022/08/05 01:39:55;;;;;;;3.45;1.40;;;24.90;99.90;;;;;;1042609;28;20025;-67
2022/08/05 01:40:28;;;;;;;3.03;1.50;;;24.90;99.90;;;;;;1042926;28;20048;-68
2022/08/05 01:41:01;;;;;;;4.35;1.88;;;24.90;99.90;;;;;;1039920;28;20644;-67
2022/08/05 01:41:34;;;;;;;2.58;1.30;;;24.90;99.90;;;;;;1038952;28;20013;-67
2022/08/05 01:42:07;;;;;;;2.17;1.30;;;24.90;99.90;;;;;;1039907;28;20009;-67
2022/08/05 01:42:41;;;;;;;2.33;1.25;;;24.90;99.90;;;;;;1042863;28;20021;-67
2022/08/05 01:43:13;;;;;;;4.32;1.95;;;24.90;99.90;;;;;;1042859;28;20119;-67
2022/08/05 01:43:45;;;;;;;2.55;1.27;;;24.90;99.90;;;;;;1042592;28;20561;-67
2022/08/05 01:44:16;;;;;;;2.63;1.40;;;24.90;99.90;;;;;;1039082;28;20299;-67
2022/08/05 01:44:48;;;;;;;3.13;1.48;;;24.90;99.90;;;;;;1038365;28;20022;-67
2022/08/05 01:45:19;;;;;;;2.88;1.40;;;24.90;99.90;;;;;;1038353;28;20029;-67
2022/08/05 01:45:52;;;;;;;2.63;1.50;;;24.90;99.90;;;;;;1042281;28;20559;-68
2022/08/05 01:46:24;;;;;;;3.58;1.73;;;24.90;99.90;;;;;;1042615;28;20019;-67
2022/08/05 01:46:56;;;;;;;2.25;1.42;;;24.80;99.90;;;;;;1042353;28;20098;-67
2022/08/05 01:47:30;;;;;;;3.08;1.38;;;24.80;99.90;;;;;;1042783;28;20013;-68
2022/08/05 01:48:02;;;;;;;2.83;1.42;;;24.90;99.90;;;;;;1042237;28;20024;-67
2022/08/05 01:48:34;;;;;;;2.55;1.48;;;24.90;99.90;;;;;;1042801;28;20064;-70
2022/08/05 01:49:07;;;;;;;2.65;1.60;;;24.90;99.90;;;;;;1042108;28;20025;-67
2022/08/05 01:49:40;;;;;;;2.20;1.50;;;24.90;99.90;;;;;;1042532;28;20580;-68
2022/08/05 01:50:17;;;;;;;3.40;1.60;;;24.80;99.90;;;;;;1042784;28;20028;-68
2022/08/05 01:50:49;;;;;;;3.65;1.30;;;24.90;99.90;;;;;;1042842;28;20041;-68
2022/08/05 01:51:21;;;;;;;3.55;1.42;;;24.80;99.90;;;;;;1042755;28;20079;-68
2022/08/05 01:51:58;;;;;;;1.73;1.27;;;24.90;99.90;;;;;;1042956;28;20013;-68
2022/08/05 01:52:30;;;;;;;3.13;1.35;;;24.80;99.90;;;;;;1042627;28;20083;-68
2022/08/05 01:53:04;;;;;;;2.25;1.25;;;24.80;99.90;;;;;;1042608;28;20040;-68
2022/08/05 01:53:37;;;;;;;2.30;1.25;;;24.90;99.90;;;;;;1042433;28;20022;-68
2022/08/05 01:54:09;;;;;;;4.35;1.30;;;24.80;99.90;;;;;;1042753;28;20055;-68
2022/08/05 01:54:48;;;;;;;3.05;1.50;;;24.80;99.90;;;;;;1042737;28;20017;-68
2022/08/05 01:55:22;;;;;;;2.53;1.27;;;24.90;99.90;;;;;;1042783;28;20079;-68
2022/08/05 01:55:58;;;;;;;3.55;1.60;;;24.90;99.90;;;;;;1043465;28;20494;-68
2022/08/05 01:56:33;;;;;;;2.78;1.50;;;24.80;99.90;;;;;;1039500;28;20552;-68
2022/08/05 01:57:05;;;;;;;3.22;1.50;;;24.80;99.90;;;;;;1039527;28;20018;-68
2022/08/05 01:57:40;;;;;;;3.53;1.52;;;24.80;99.90;;;;;;1042381;28;20017;-67
2022/08/05 01:58:14;;;;;;;3.13;1.45;;;24.80;99.90;;;;;;1043751;28;20677;-68
2022/08/05 01:58:48;;;;;;;2.45;1.27;;;24.80;99.90;;;;;;1043431;28;20032;-67
2022/08/05 01:59:21;;;;;;;2.25;1.30;;;24.80;99.90;;;;;;1043112;28;20404;-67
2022/08/05 01:59:57;;;;;;;2.95;1.42;;;24.90;99.90;;;;;;1043035;28;20060;-67
2022/08/05 02:00:28;;;;;;;2.53;1.38;;;24.80;99.90;;;;;;1040744;28;20020;-67
2022/08/05 02:01:01;;;;;;;2.03;1.38;;;24.60;99.90;;;;;;1042017;28;20703;-68
2022/08/05 02:01:34;;;;;;;2.40;1.55;;;24.80;99.90;;;;;;1043591;28;20013;-68
2022/08/05 02:02:06;;;;;;;2.70;1.42;;;24.80;99.90;;;;;;1043423;28;20021;-69
2022/08/05 02:02:40;;;;;;;2.10;0.93;;;24.80;99.90;;;;;;1043400;28;20098;-68
2022/08/05 02:03:24;;;;;;;3.55;1.40;;;24.90;99.90;;;;;;1043567;28;20017;-68
2022/08/05 02:03:56;;;;;;;3.33;1.30;;;24.80;99.90;;;;;;1043188;28;20024;-68
2022/08/05 02:04:29;;;;;;;2.38;1.40;;;24.80;99.90;;;;;;1040158;28;20017;-68
2022/08/05 02:05:05;;;;;;;2.38;1.30;;;24.80;99.90;;;;;;1039272;28;20156;-68
2022/08/05 02:05:38;;;;;;;5.00;1.80;;;24.80;99.90;;;;;;1039548;28;20036;-68
2022/08/05 02:06:10;;;;;;;5.22;1.23;;;24.80;99.90;;;;;;1042788;28;20017;-68
2022/08/05 02:06:40;;;;;;;2.05;1.25;;;24.80;99.90;;;;;;1043576;28;20024;-68
2022/08/05 02:07:11;;;;;;;2.33;1.17;;;24.70;99.90;;;;;;1043607;28;20048;-68
2022/08/05 02:07:42;;;;;;;4.50;1.80;;;24.70;99.90;;;;;;1043310;28;20013;-68
2022/08/05 02:08:13;;;;;;;1.55;1.10;;;24.70;99.90;;;;;;1043467;28;20395;-68
2022/08/05 02:08:43;;;;;;;2.80;1.20;;;24.70;99.90;;;;;;1043496;28;20467;-67
2022/08/05 02:09:14;;;;;;;2.53;1.17;;;24.70;99.90;;;;;;1042939;28;20019;-67
2022/08/05 02:09:45;;;;;;;2.30;1.13;;;24.70;99.90;;;;;;1043126;28;20163;-67
2022/08/05 02:10:16;;;;;;;3.53;1.30;;;24.70;99.90;;;;;;1042971;28;20047;-67
2022/08/05 02:10:51;;;;;;;2.27;1.30;;;24.70;99.90;;;;;;1043286;28;20025;-67
2022/08/05 02:11:22;;;;;;;4.05;1.55;;;24.70;99.90;;;;;;1042331;28;20021;-67
2022/08/05 02:12:06;;;;;;;3.17;1.40;;;24.70;99.90;;;;;;1041528;28;20108;-68
2022/08/05 02:12:51;;;;;;;3.72;1.60;;;24.70;99.90;;;;;;1043399;28;20025;-67
2022/08/05 02:14:00;;;;;;;2.30;1.23;;;24.70;99.90;;;;;;1043122;28;20021;-67
2022/08/05 02:14:42;;;;;;;1.98;1.20;;;24.70;99.90;;;;;;1041721;28;20037;-67
2022/08/05 02:15:20;;;;;;;3.10;1.50;;;24.70;99.90;;;;;;1043126;28;20032;-67
2022/08/05 02:15:56;;;;;;;;;;;24.70;99.90;;;;;;1039498;28;20021;-67
2022/08/05 02:16:40;;;;;;;2.72;1.38;;;24.70;99.90;;;;;;1035000;28;20000;-67
2022/08/05 02:17:24;;;;;;;3.78;1.48;;;24.70;99.90;;;;;;1038822;28;20022;-68
2022/08/05 02:18:22;;;;;;;3.17;1.55;;;24.70;99.90;;;;;;1041633;28;20707;-68
2022/08/05 02:18:57;;;;;;;3.67;1.50;;;24.70;99.90;;;;;;1043527;28;20032;-67
2022/08/05 02:19:33;;;;;;;2.72;1.30;;;24.70;99.90;;;;;;1043653;28;20017;-67
2022/08/05 02:20:09;;;;;;;4.72;1.67;;;24.70;99.90;;;;;;1043336;28;20012;-69
2022/08/05 02:21:13;;;;;;;3.58;1.48;;;24.70;99.90;;;;;;1043330;28;20422;-67
2022/08/05 02:21:57;;;;;;;3.00;1.35;;;24.70;99.90;;;;;;1041697;28;20114;-67
2022/08/05 02:22:37;;;;;;;3.92;1.60;;;24.70;99.90;;;;;;1043638;28;20071;-68
2022/08/05 02:23:10;;;;;;;3.10;1.45;;;24.70;99.90;;;;;;1043628;28;20035;-67
2022/08/05 02:23:43;;;;;;;2.00;1.20;;;24.70;99.90;;;;;;1043160;28;20013;-67
2022/08/05 02:24:18;;;;;;;3.38;1.58;;;24.70;99.90;;;;;;1043453;28;20674;-68
2022/08/05 02:25:00;;;;;;;3.38;1.42;;;24.60;99.90;;;;;;1043390;28;20028;-68
2022/08/05 02:25:34;;;;;;;2.03;1.33;;;24.60;99.90;;;;;;1043707;28;20036;-68
2022/08/05 02:26:08;;;;;;;2.50;1.17;;;24.60;99.90;;;;;;1043274;28;20059;-68
2022/08/05 02:26:48;;;;;;;3.60;1.80;;;24.60;99.90;;;;;;1043245;28;20040;-67
2022/08/05 02:27:21;;;;;;;4.28;1.60;;;24.60;99.90;;;;;;1043519;28;20040;-68
2022/08/05 02:27:57;;;;;;;3.10;1.38;;;24.60;99.90;;;;;;1043340;28;20041;-68
2022/08/05 02:28:32;;;;;;;3.53;1.55;;;24.60;99.90;;;;;;1041074;28;20097;-68
2022/08/05 02:29:04;;;;;;;2.58;1.30;;;24.60;99.90;;;;;;1043277;28;20445;-68
2022/08/05 02:29:36;;;;;;;3.15;1.60;;;24.60;99.90;;;;;;1043574;28;20036;-68
2022/08/05 02:30:10;;;;;;;3.08;1.52;;;24.60;99.90;;;;;;1042995;28;20635;-68
2022/08/05 02:30:47;;;;;;;2.42;1.48;;;24.60;99.90;;;;;;1043527;28;20080;-68
2022/08/05 02:31:27;;;;;;;2.90;1.55;;;24.60;99.90;;;;;;1043340;28;20611;-68
2022/08/05 02:31:59;;;;;;;2.42;1.30;;;24.60;99.90;;;;;;1043305;28;20068;-68
2022/08/05 02:32:32;;;;;;;2.63;1.42;;;24.60;99.90;;;;;;1043400;28;20036;-68
2022/08/05 02:33:04;;;;;;;3.42;1.40;;;24.60;99.90;;;;;;1042996;28;20024;-68
2022/08/05 02:33:42;;;;;;;2.22;1.25;;;24.60;99.90;;;;;;1042914;28;20091;-68
2022/08/05 02:34:15;;;;;;;2.15;1.50;;;24.60;99.90;;;;;;1043175;28;20063;-68
2022/08/05 02:34:46;;;;;;;3.50;1.65;;;24.60;99.90;;;;;;1043022;28;20013;-68
2022/08/05 02:35:21;;;;;;;3.23;1.53;;;24.60;99.90;;;;;;1042923;28;20017;-68
2022/08/05 02:35:57;;;;;;;3.10;1.48;;;24.60;99.90;;;;;;1043305;28;20626;-67
2022/08/05 02:36:31;;;;;;;5.38;1.70;;;24.60;99.90;;;;;;1043035;28;20507;-67
2022/08/05 02:37:06;;;;;;;2.10;1.33;;;24.60;99.90;;;;;;1043029;28;20052;-69
2022/08/05 02:37:38;;;;;;;2.25;1.05;;;24.60;99.90;;;;;;1042930;28;20056;-67
2022/08/05 02:38:11;;;;;;;2.88;1.27;;;24.60;99.90;;;;;;1043325;28;20016;-67
2022/08/05 02:38:46;;;;;;;3.42;1.67;;;24.60;99.90;;;;;;1043213;28;20078;-67
2022/08/05 02:39:19;;;;;;;2.55;1.27;;;24.60;99.90;;;;;;1043515;28;20019;-67
2022/08/05 02:39:51;;;;;;;3.13;1.38;;;24.60;99.90;;;;;;1043312;28;20373;-67
2022/08/05 02:40:24;;;;;;;2.97;1.02;;;24.60;99.90;;;;;;1043334;28;20550;-67
2022/08/05 02:40:56;;;;;;;2.45;1.27;;;24.60;99.90;;;;;;1041138;28;20025;-67
2022/08/05 02:41:28;;;;;;;2.45;1.10;;;24.60;99.90;;;;;;1039575;28;20488;-68
2022/08/05 02:42:00;;;;;;;3.67;1.30;;;24.60;99.90;;;;;;1042080;28;20023;-67
2022/08/05 02:42:33;;;;;;;1.67;1.25;;;24.60;99.90;;;;;;1043663;28;20018;-67
2022/08/05 02:43:05;;;;;;;1.73;1.20;;;24.60;99.90;;;;;;1043330;28;20125;-67
2022/08/05 02:43:39;;;;;;;2.92;1.35;;;24.60;99.90;;;;;;1043435;28;20025;-67
2022/08/05 02:44:11;;;;;;;3.20;1.60;;;24.60;99.90;;;;;;1043519;28;20013;-67
2022/08/05 02:44:43;;;;;;;2.13;1.30;;;24.50;99.90;;;;;;1042759;28;20426;-67
2022/08/05 02:45:15;;;;;;;2.65;1.30;;;24.50;99.90;;;;;;1043150;28;20021;-67
2022/08/05 02:45:46;;;;;;;3.45;1.27;;;24.50;99.90;;;;;;1042732;28;20723;-68
2022/08/05 02:46:19;;;;;;;2.65;1.30;;;24.50;99.90;;;;;;1043167;28;20514;-67
2022/08/05 02:46:50;;;;;;;3.90;1.73;;;24.50;99.90;;;;;;1043233;28;20021;-67
2022/08/05 02:47:21;;;;;;;2.88;1.30;;;24.50;99.90;;;;;;1040556;28;20033;-67
2022/08/05 02:47:53;;;;;;;2.65;1.33;;;24.50;99.90;;;;;;1038718;28;20115;-68
2022/08/05 02:48:25;;;;;;;2.00;0.98;;;24.50;99.90;;;;;;1038933;28;20021;-67
2022/08/05 02:48:57;;;;;;;2.00;1.23;;;24.50;99.90;;;;;;1040414;28;20017;-67
2022/08/05 02:49:34;;;;;;;2.80;1.45;;;24.50;99.90;;;;;;1039262;28;20044;-67
2022/08/05 02:50:06;;;;;;;1.48;1.08;;;24.50;99.90;;;;;;1039053;28;20469;-68
2022/08/05 02:50:37;;;;;;;2.03;0.90;;;24.50;99.90;;;;;;1040921;28;20026;-67
2022/08/05 02:51:08;;;;;;;3.63;1.30;;;24.50;99.90;;;;;;1043227;28;20047;-68
2022/08/05 02:51:40;;;;;;;2.93;1.43;;;24.50;99.90;;;;;;1043399;28;20051;-67
2022/08/05 02:52:16;;;;;;;4.63;1.27;;;24.50;99.90;;;;;;1043129;28;20496;-67
2022/08/05 02:52:47;;;;;;;4.38;1.80;;;24.50;99.90;;;;;;1043394;28;20021;-68
2022/08/05 02:53:20;;;;;;;2.17;1.38;;;24.50;99.90;;;;;;1043178;28;20017;-67
2022/08/05 02:53:51;;;;;;;2.45;1.10;;;24.50;99.90;;;;;;1043247;28;20020;-67
2022/08/05 02:54:23;;;;;;;2.58;1.13;;;24.50;99.90;;;;;;1043278;28;20396;-67
2022/08/05 02:54:55;;;;;;;2.65;1.30;;;24.50;99.90;;;;;;1043456;28;20048;-67
2022/08/05 02:55:28;;;;;;;4.28;1.48;;;24.50;99.90;;;;;;1043292;28;20025;-67
2022/08/05 02:56:00;;;;;;;2.55;1.50;;;24.50;99.90;;;;;;1042861;28;20017;-67
2022/08/05 02:56:32;;;;;;;2.72;1.20;;;24.50;99.90;;;;;;1039318;28;20022;-68
2022/08/05 02:57:05;;;;;;;2.13;1.10;;;24.50;99.90;;;;;;1039123;28;20014;-68
2022/08/05 02:57:38;;;;;;;3.42;1.50;;;24.40;99.90;;;;;;1039104;28;20028;-67